sensor_id;sensor_type;location;lat;lon;timestamp;P1;durP1;ratioP1;P2;durP2;ratioP2
17259;SDS011;8746;49.230;9.220;2023-03-18T00:00:40;8.73;;;5.77;;
17259;SDS011;8746;49.230;9.220;2023-03-18T00:03:06;8.33;;;6.10;;
17259;SDS011;8746;49.230;9.220;2023-03-18T00:05:32;6.37;;;5.70;;
17259;SDS011;8746;49.230;9.220;2023-03-18T00:07:59;8.90;;;6.23;;
17259;SDS011;8746;49.230;9.220;2023-03-18T00:10:25;6.77;;;5.83;;
17259;SDS011;8746;49.230;9.220;2023-03-18T00:12:50;9.43;;;5.43;;
17259;SDS011;8746;49.230;9.220;2023-03-18T00:15:17;10.93;;;6.10;;
17259;SDS011;8746;49.230;9.220;2023-03-18T00:17:43;8.93;;;5.63;;
17259;SDS011;8746;49.230;9.220;2023-03-18T00:20:10;10.30;;;6.17;;
17259;SDS011;8746;49.230;9.220;2023-03-18T00:22:37;7.00;;;5.90;;
17259;SDS011;8746;49.230;9.220;2023-03-18T00:25:04;6.90;;;6.20;;
17259;SDS011;8746;49.230;9.220;2023-03-18T00:27:31;7.03;;;6.00;;
17259;SDS011;8746;49.230;9.220;2023-03-18T00:29:57;8.00;;;5.80;;
17259;SDS011;8746;49.230;9.220;2023-03-18T00:32:24;11.50;;;6.47;;
17259;SDS011;8746;49.230;9.220;2023-03-18T00:34:51;9.17;;;5.90;;
17259;SDS011;8746;49.230;9.220;2023-03-18T00:37:17;6.83;;;5.50;;
17259;SDS011;8746;49.230;9.220;2023-03-18T00:39:54;9.93;;;6.07;;
17259;SDS011;8746;49.230;9.220;2023-03-18T00:42:34;7.40;;;6.03;;
17259;SDS011;8746;49.230;9.220;2023-03-18T00:45:08;8.13;;;6.10;;
17259;SDS011;8746;49.230;9.220;2023-03-18T00:47:37;7.87;;;6.50;;
17259;SDS011;8746;49.230;9.220;2023-03-18T00:50:03;8.83;;;6.13;;
17259;SDS011;8746;49.230;9.220;2023-03-18T00:52:30;8.83;;;6.60;;
17259;SDS011;8746;49.230;9.220;2023-03-18T00:54:56;11.13;;;6.50;;
17259;SDS011;8746;49.230;9.220;2023-03-18T00:57:21;9.20;;;6.07;;
17259;SDS011;8746;49.230;9.220;2023-03-18T00:59:48;10.73;;;6.40;;
17259;SDS011;8746;49.230;9.220;2023-03-18T01:02:13;9.23;;;6.60;;
17259;SDS011;8746;49.230;9.220;2023-03-18T01:04:39;9.03;;;6.93;;
17259;SDS011;8746;49.230;9.220;2023-03-18T01:07:05;9.77;;;6.80;;
17259;SDS011;8746;49.230;9.220;2023-03-18T01:09:31;7.27;;;6.50;;
17259;SDS011;8746;49.230;9.220;2023-03-18T01:11:56;7.60;;;6.80;;
17259;SDS011;8746;49.230;9.220;2023-03-18T01:14:21;8.40;;;6.63;;
17259;SDS011;8746;49.230;9.220;2023-03-18T01:16:46;7.03;;;6.13;;
17259;SDS011;8746;49.230;9.220;2023-03-18T01:19:13;7.37;;;6.57;;
17259;SDS011;8746;49.230;9.220;2023-03-18T01:21:38;11.87;;;6.50;;
17259;SDS011;8746;49.230;9.220;2023-03-18T01:24:04;7.50;;;6.63;;
17259;SDS011;8746;49.230;9.220;2023-03-18T01:26:30;9.60;;;7.20;;
17259;SDS011;8746;49.230;9.220;2023-03-18T01:28:55;9.13;;;6.83;;
17259;SDS011;8746;49.230;9.220;2023-03-18T01:31:21;10.97;;;7.13;;
17259;SDS011;8746;49.230;9.220;2023-03-18T01:33:48;10.07;;;6.73;;
17259;SDS011;8746;49.230;9.220;2023-03-18T01:36:14;10.93;;;6.73;;
17259;SDS011;8746;49.230;9.220;2023-03-18T01:38:39;10.07;;;6.40;;
17259;SDS011;8746;49.230;9.220;2023-03-18T01:41:06;8.30;;;6.50;;
17259;SDS011;8746;49.230;9.220;2023-03-18T01:43:33;8.63;;;6.23;;
17259;SDS011;8746;49.230;9.220;2023-03-18T01:46:00;8.03;;;6.53;;
17259;SDS011;8746;49.230;9.220;2023-03-18T01:48:46;11.23;;;6.63;;
17259;SDS011;8746;49.230;9.220;2023-03-18T01:51:12;7.87;;;6.13;;
17259;SDS011;8746;49.230;9.220;2023-03-18T01:53:39;7.27;;;6.43;;
17259;SDS011;8746;49.230;9.220;2023-03-18T01:56:09;9.03;;;6.63;;
17259;SDS011;8746;49.230;9.220;2023-03-18T01:58:39;10.57;;;6.70;;
17259;SDS011;8746;49.230;9.220;2023-03-18T02:01:16;10.63;;;6.80;;
17259;SDS011;8746;49.230;9.220;2023-03-18T02:03:47;9.80;;;5.83;;
17259;SDS011;8746;49.230;9.220;2023-03-18T02:06:15;8.50;;;6.37;;
17259;SDS011;8746;49.230;9.220;2023-03-18T02:08:40;8.43;;;6.90;;
17259;SDS011;8746;49.230;9.220;2023-03-18T02:11:06;8.50;;;7.03;;
17259;SDS011;8746;49.230;9.220;2023-03-18T02:13:37;8.10;;;6.30;;
17259;SDS011;8746;49.230;9.220;2023-03-18T02:16:08;10.33;;;6.60;;
17259;SDS011;8746;49.230;9.220;2023-03-18T02:18:59;9.53;;;6.50;;
17259;SDS011;8746;49.230;9.220;2023-03-18T02:21:48;9.97;;;6.20;;
17259;SDS011;8746;49.230;9.220;2023-03-18T02:27:25;7.77;;;6.20;;
17259;SDS011;8746;49.230;9.220;2023-03-18T02:29:55;7.27;;;5.83;;
17259;SDS011;8746;49.230;9.220;2023-03-18T02:32:28;7.33;;;6.33;;
17259;SDS011;8746;49.230;9.220;2023-03-18T02:34:55;7.50;;;5.90;;
17259;SDS011;8746;49.230;9.220;2023-03-18T02:37:24;9.00;;;6.33;;
17259;SDS011;8746;49.230;9.220;2023-03-18T02:39:49;7.33;;;5.97;;
17259;SDS011;8746;49.230;9.220;2023-03-18T02:42:25;8.27;;;5.83;;
17259;SDS011;8746;49.230;9.220;2023-03-18T02:44:52;6.73;;;6.03;;
17259;SDS011;8746;49.230;9.220;2023-03-18T02:47:18;7.60;;;6.07;;
17259;SDS011;8746;49.230;9.220;2023-03-18T02:49:46;10.43;;;6.00;;
17259;SDS011;8746;49.230;9.220;2023-03-18T02:52:12;9.17;;;6.20;;
17259;SDS011;8746;49.230;9.220;2023-03-18T02:54:37;7.80;;;5.73;;
17259;SDS011;8746;49.230;9.220;2023-03-18T02:57:02;6.93;;;5.87;;
17259;SDS011;8746;49.230;9.220;2023-03-18T02:59:28;8.67;;;5.97;;
17259;SDS011;8746;49.230;9.220;2023-03-18T03:01:54;7.17;;;5.70;;
17259;SDS011;8746;49.230;9.220;2023-03-18T03:04:20;7.47;;;5.57;;
17259;SDS011;8746;49.230;9.220;2023-03-18T03:06:48;7.17;;;6.00;;
17259;SDS011;8746;49.230;9.220;2023-03-18T03:09:14;8.17;;;5.87;;
17259;SDS011;8746;49.230;9.220;2023-03-18T03:11:41;8.53;;;6.00;;
17259;SDS011;8746;49.230;9.220;2023-03-18T03:14:08;7.33;;;5.63;;
17259;SDS011;8746;49.230;9.220;2023-03-18T03:16:34;8.43;;;6.03;;
17259;SDS011;8746;49.230;9.220;2023-03-18T03:19:00;8.00;;;5.97;;
17259;SDS011;8746;49.230;9.220;2023-03-18T03:21:26;8.90;;;6.40;;
17259;SDS011;8746;49.230;9.220;2023-03-18T03:23:52;6.93;;;5.63;;
17259;SDS011;8746;49.230;9.220;2023-03-18T03:26:18;8.90;;;5.43;;
17259;SDS011;8746;49.230;9.220;2023-03-18T03:28:44;9.10;;;6.17;;
17259;SDS011;8746;49.230;9.220;2023-03-18T03:31:10;6.67;;;5.60;;
17259;SDS011;8746;49.230;9.220;2023-03-18T03:33:38;6.13;;;5.33;;
17259;SDS011;8746;49.230;9.220;2023-03-18T03:36:06;7.93;;;5.63;;
17259;SDS011;8746;49.230;9.220;2023-03-18T03:38:36;8.07;;;6.07;;
17259;SDS011;8746;49.230;9.220;2023-03-18T03:41:05;7.10;;;5.50;;
17259;SDS011;8746;49.230;9.220;2023-03-18T03:43:31;6.80;;;5.77;;
17259;SDS011;8746;49.230;9.220;2023-03-18T03:45:57;7.70;;;5.63;;
17259;SDS011;8746;49.230;9.220;2023-03-18T03:48:23;8.03;;;6.10;;
17259;SDS011;8746;49.230;9.220;2023-03-18T03:50:49;6.80;;;6.10;;
17259;SDS011;8746;49.230;9.220;2023-03-18T03:53:15;6.97;;;6.07;;
17259;SDS011;8746;49.230;9.220;2023-03-18T03:55:40;6.40;;;5.80;;
17259;SDS011;8746;49.230;9.220;2023-03-18T03:58:06;6.43;;;5.67;;
17259;SDS011;8746;49.230;9.220;2023-03-18T04:00:32;8.00;;;6.03;;
17259;SDS011;8746;49.230;9.220;2023-03-18T04:02:58;7.27;;;5.97;;
17259;SDS011;8746;49.230;9.220;2023-03-18T04:05:23;6.73;;;5.70;;
17259;SDS011;8746;49.230;9.220;2023-03-18T04:07:49;10.40;;;5.77;;
17259;SDS011;8746;49.230;9.220;2023-03-18T04:10:16;6.60;;;5.83;;
17259;SDS011;8746;49.230;9.220;2023-03-18T04:12:44;8.47;;;5.93;;
17259;SDS011;8746;49.230;9.220;2023-03-18T04:15:11;8.07;;;5.83;;
17259;SDS011;8746;49.230;9.220;2023-03-18T04:17:38;5.90;;;5.30;;
17259;SDS011;8746;49.230;9.220;2023-03-18T04:20:04;7.00;;;5.10;;
17259;SDS011;8746;49.230;9.220;2023-03-18T04:22:31;8.97;;;5.57;;
17259;SDS011;8746;49.230;9.220;2023-03-18T04:24:56;7.40;;;6.13;;
17259;SDS011;8746;49.230;9.220;2023-03-18T04:27:22;7.67;;;5.97;;
17259;SDS011;8746;49.230;9.220;2023-03-18T04:29:48;8.73;;;5.90;;
17259;SDS011;8746;49.230;9.220;2023-03-18T04:32:13;5.97;;;5.37;;
17259;SDS011;8746;49.230;9.220;2023-03-18T04:34:39;6.47;;;5.10;;
17259;SDS011;8746;49.230;9.220;2023-03-18T04:37:04;7.17;;;5.63;;
17259;SDS011;8746;49.230;9.220;2023-03-18T04:39:29;8.93;;;5.70;;
17259;SDS011;8746;49.230;9.220;2023-03-18T04:41:55;7.23;;;5.60;;
17259;SDS011;8746;49.230;9.220;2023-03-18T04:44:23;6.20;;;5.40;;
17259;SDS011;8746;49.230;9.220;2023-03-18T04:46:49;7.60;;;5.77;;
17259;SDS011;8746;49.230;9.220;2023-03-18T04:49:17;7.30;;;5.80;;
17259;SDS011;8746;49.230;9.220;2023-03-18T04:51:44;8.43;;;5.93;;
17259;SDS011;8746;49.230;9.220;2023-03-18T04:54:10;6.40;;;5.67;;
17259;SDS011;8746;49.230;9.220;2023-03-18T04:56:36;7.00;;;6.30;;
17259;SDS011;8746;49.230;9.220;2023-03-18T04:59:03;9.77;;;6.30;;
17259;SDS011;8746;49.230;9.220;2023-03-18T05:01:28;9.20;;;5.93;;
17259;SDS011;8746;49.230;9.220;2023-03-18T05:03:53;6.70;;;5.67;;
17259;SDS011;8746;49.230;9.220;2023-03-18T05:06:20;6.70;;;5.40;;
17259;SDS011;8746;49.230;9.220;2023-03-18T05:08:50;7.03;;;5.40;;
17259;SDS011;8746;49.230;9.220;2023-03-18T05:11:17;7.07;;;5.70;;
17259;SDS011;8746;49.230;9.220;2023-03-18T05:13:43;9.93;;;5.80;;
17259;SDS011;8746;49.230;9.220;2023-03-18T05:16:09;7.00;;;5.67;;
17259;SDS011;8746;49.230;9.220;2023-03-18T05:18:35;6.60;;;5.70;;
17259;SDS011;8746;49.230;9.220;2023-03-18T05:21:01;8.43;;;5.97;;
17259;SDS011;8746;49.230;9.220;2023-03-18T05:23:27;7.60;;;5.97;;
17259;SDS011;8746;49.230;9.220;2023-03-18T05:25:53;7.93;;;6.23;;
17259;SDS011;8746;49.230;9.220;2023-03-18T05:28:18;8.90;;;6.43;;
17259;SDS011;8746;49.230;9.220;2023-03-18T05:30:44;8.63;;;6.80;;
17259;SDS011;8746;49.230;9.220;2023-03-18T05:33:09;9.87;;;6.87;;
17259;SDS011;8746;49.230;9.220;2023-03-18T05:35:35;7.37;;;6.33;;
17259;SDS011;8746;49.230;9.220;2023-03-18T05:38:00;11.30;;;6.50;;
17259;SDS011;8746;49.230;9.220;2023-03-18T05:40:26;8.43;;;5.80;;
17259;SDS011;8746;49.230;9.220;2023-03-18T05:42:51;6.40;;;5.50;;
17259;SDS011;8746;49.230;9.220;2023-03-18T05:45:17;7.97;;;6.17;;
17259;SDS011;8746;49.230;9.220;2023-03-18T05:47:42;6.53;;;5.80;;
17259;SDS011;8746;49.230;9.220;2023-03-18T05:50:08;13.90;;;9.20;;
17259;SDS011;8746;49.230;9.220;2023-03-18T05:52:35;11.90;;;8.80;;
17259;SDS011;8746;49.230;9.220;2023-03-18T05:55:00;11.83;;;8.50;;
17259;SDS011;8746;49.230;9.220;2023-03-18T05:57:26;9.93;;;8.27;;
17259;SDS011;8746;49.230;9.220;2023-03-18T05:59:52;10.03;;;7.70;;
17259;SDS011;8746;49.230;9.220;2023-03-18T06:02:17;8.97;;;7.43;;
17259;SDS011;8746;49.230;9.220;2023-03-18T06:04:42;8.40;;;7.23;;
17259;SDS011;8746;49.230;9.220;2023-03-18T06:07:08;9.70;;;7.67;;
17259;SDS011;8746;49.230;9.220;2023-03-18T06:09:33;8.73;;;7.43;;
17259;SDS011;8746;49.230;9.220;2023-03-18T06:11:58;9.77;;;7.57;;
17259;SDS011;8746;49.230;9.220;2023-03-18T06:14:24;12.40;;;8.53;;
17259;SDS011;8746;49.230;9.220;2023-03-18T06:16:56;9.37;;;7.30;;
17259;SDS011;8746;49.230;9.220;2023-03-18T06:19:22;8.30;;;6.70;;
17259;SDS011;8746;49.230;9.220;2023-03-18T06:21:47;10.70;;;7.80;;
17259;SDS011;8746;49.230;9.220;2023-03-18T06:24:13;8.20;;;6.77;;
17259;SDS011;8746;49.230;9.220;2023-03-18T06:26:39;8.27;;;6.90;;
17259;SDS011;8746;49.230;9.220;2023-03-18T06:29:05;6.90;;;6.20;;
17259;SDS011;8746;49.230;9.220;2023-03-18T06:31:31;11.50;;;6.73;;
17259;SDS011;8746;49.230;9.220;2023-03-18T06:33:57;14.50;;;11.27;;
17259;SDS011;8746;49.230;9.220;2023-03-18T06:36:23;17.60;;;13.93;;
17259;SDS011;8746;49.230;9.220;2023-03-18T06:38:48;17.10;;;12.83;;
17259;SDS011;8746;49.230;9.220;2023-03-18T06:41:13;10.53;;;9.17;;
17259;SDS011;8746;49.230;9.220;2023-03-18T06:43:40;7.83;;;6.67;;
17259;SDS011;8746;49.230;9.220;2023-03-18T06:46:05;8.10;;;6.40;;
17259;SDS011;8746;49.230;9.220;2023-03-18T06:48:31;8.33;;;6.10;;
17259;SDS011;8746;49.230;9.220;2023-03-18T06:50:57;6.77;;;5.93;;
17259;SDS011;8746;49.230;9.220;2023-03-18T06:53:23;9.50;;;6.80;;
17259;SDS011;8746;49.230;9.220;2023-03-18T06:55:49;8.90;;;6.73;;
17259;SDS011;8746;49.230;9.220;2023-03-18T06:58:14;7.77;;;6.00;;
17259;SDS011;8746;49.230;9.220;2023-03-18T07:00:41;9.63;;;7.30;;
17259;SDS011;8746;49.230;9.220;2023-03-18T07:03:09;7.60;;;6.33;;
17259;SDS011;8746;49.230;9.220;2023-03-18T07:05:35;6.50;;;5.87;;
17259;SDS011;8746;49.230;9.220;2023-03-18T07:08:00;6.57;;;5.97;;
17259;SDS011;8746;49.230;9.220;2023-03-18T07:10:27;8.37;;;6.07;;
17259;SDS011;8746;49.230;9.220;2023-03-18T07:12:54;7.53;;;5.83;;
17259;SDS011;8746;49.230;9.220;2023-03-18T07:15:20;6.30;;;5.70;;
17259;SDS011;8746;49.230;9.220;2023-03-18T07:17:47;6.97;;;5.80;;
17259;SDS011;8746;49.230;9.220;2023-03-18T07:20:13;7.03;;;6.27;;
17259;SDS011;8746;49.230;9.220;2023-03-18T07:22:39;8.20;;;6.10;;
17259;SDS011;8746;49.230;9.220;2023-03-18T07:25:06;5.90;;;5.30;;
17259;SDS011;8746;49.230;9.220;2023-03-18T07:27:32;5.63;;;4.83;;
17259;SDS011;8746;49.230;9.220;2023-03-18T07:29:57;6.93;;;5.00;;
17259;SDS011;8746;49.230;9.220;2023-03-18T07:32:22;5.80;;;5.30;;
17259;SDS011;8746;49.230;9.220;2023-03-18T07:34:48;4.90;;;4.47;;
17259;SDS011;8746;49.230;9.220;2023-03-18T07:37:13;5.23;;;4.60;;
17259;SDS011;8746;49.230;9.220;2023-03-18T07:39:39;5.97;;;4.97;;
17259;SDS011;8746;49.230;9.220;2023-03-18T07:42:05;6.00;;;4.70;;
17259;SDS011;8746;49.230;9.220;2023-03-18T07:44:30;6.87;;;4.80;;
17259;SDS011;8746;49.230;9.220;2023-03-18T07:46:56;6.53;;;5.47;;
17259;SDS011;8746;49.230;9.220;2023-03-18T07:49:22;5.23;;;4.73;;
17259;SDS011;8746;49.230;9.220;2023-03-18T07:51:47;6.53;;;4.80;;
17259;SDS011;8746;49.230;9.220;2023-03-18T07:54:14;4.90;;;4.50;;
17259;SDS011;8746;49.230;9.220;2023-03-18T07:56:39;5.20;;;4.80;;
17259;SDS011;8746;49.230;9.220;2023-03-18T07:59:05;6.97;;;4.67;;
17259;SDS011;8746;49.230;9.220;2023-03-18T08:01:31;6.10;;;4.87;;
17259;SDS011;8746;49.230;9.220;2023-03-18T08:03:57;6.27;;;5.10;;
17259;SDS011;8746;49.230;9.220;2023-03-18T08:06:22;7.13;;;4.50;;
17259;SDS011;8746;49.230;9.220;2023-03-18T08:08:49;7.07;;;5.23;;
17259;SDS011;8746;49.230;9.220;2023-03-18T08:11:14;7.47;;;4.77;;
17259;SDS011;8746;49.230;9.220;2023-03-18T08:13:40;5.40;;;4.60;;
17259;SDS011;8746;49.230;9.220;2023-03-18T08:16:05;4.87;;;4.40;;
17259;SDS011;8746;49.230;9.220;2023-03-18T08:18:31;4.70;;;4.27;;
17259;SDS011;8746;49.230;9.220;2023-03-18T08:20:56;5.40;;;4.60;;
17259;SDS011;8746;49.230;9.220;2023-03-18T08:23:22;6.87;;;4.87;;
17259;SDS011;8746;49.230;9.220;2023-03-18T08:25:49;5.90;;;5.05;;
17259;SDS011;8746;49.230;9.220;2023-03-18T08:28:15;8.03;;;5.03;;
17259;SDS011;8746;49.230;9.220;2023-03-18T08:30:41;5.83;;;4.23;;
17259;SDS011;8746;49.230;9.220;2023-03-18T08:33:06;6.77;;;4.37;;
17259;SDS011;8746;49.230;9.220;2023-03-18T08:35:32;7.90;;;4.70;;
17259;SDS011;8746;49.230;9.220;2023-03-18T08:37:58;6.20;;;4.28;;
17259;SDS011;8746;49.230;9.220;2023-03-18T08:40:24;4.90;;;4.17;;
17259;SDS011;8746;49.230;9.220;2023-03-18T08:42:50;6.40;;;4.43;;
17259;SDS011;8746;49.230;9.220;2023-03-18T08:45:17;8.97;;;4.87;;
17259;SDS011;8746;49.230;9.220;2023-03-18T08:47:43;5.90;;;4.50;;
17259;SDS011;8746;49.230;9.220;2023-03-18T08:50:08;5.40;;;4.43;;
17259;SDS011;8746;49.230;9.220;2023-03-18T08:52:35;5.13;;;4.20;;
17259;SDS011;8746;49.230;9.220;2023-03-18T08:55:03;8.23;;;4.23;;
17259;SDS011;8746;49.230;9.220;2023-03-18T08:57:28;5.10;;;4.13;;
17259;SDS011;8746;49.230;9.220;2023-03-18T08:59:54;4.80;;;4.00;;
17259;SDS011;8746;49.230;9.220;2023-03-18T09:02:19;7.20;;;4.43;;
17259;SDS011;8746;49.230;9.220;2023-03-18T09:04:45;5.97;;;4.13;;
17259;SDS011;8746;49.230;9.220;2023-03-18T09:07:12;5.27;;;4.50;;
17259;SDS011;8746;49.230;9.220;2023-03-18T09:09:39;5.00;;;3.83;;
17259;SDS011;8746;49.230;9.220;2023-03-18T09:12:04;5.40;;;4.00;;
17259;SDS011;8746;49.230;9.220;2023-03-18T09:14:30;4.23;;;3.37;;
17259;SDS011;8746;49.230;9.220;2023-03-18T09:16:57;6.70;;;3.70;;
17259;SDS011;8746;49.230;9.220;2023-03-18T09:19:23;4.43;;;3.60;;
17259;SDS011;8746;49.230;9.220;2023-03-18T09:21:49;5.53;;;4.00;;
17259;SDS011;8746;49.230;9.220;2023-03-18T09:24:15;7.47;;;3.73;;
17259;SDS011;8746;49.230;9.220;2023-03-18T09:26:40;5.80;;;3.77;;
17259;SDS011;8746;49.230;9.220;2023-03-18T09:29:06;3.97;;;3.57;;
17259;SDS011;8746;49.230;9.220;2023-03-18T09:31:31;5.10;;;3.60;;
17259;SDS011;8746;49.230;9.220;2023-03-18T09:33:57;4.53;;;3.90;;
17259;SDS011;8746;49.230;9.220;2023-03-18T09:36:22;7.10;;;4.10;;
17259;SDS011;8746;49.230;9.220;2023-03-18T09:38:48;5.13;;;4.00;;
17259;SDS011;8746;49.230;9.220;2023-03-18T09:41:17;7.70;;;4.00;;
17259;SDS011;8746;49.230;9.220;2023-03-18T09:43:55;4.90;;;3.57;;
17259;SDS011;8746;49.230;9.220;2023-03-18T09:46:31;5.20;;;3.97;;
17259;SDS011;8746;49.230;9.220;2023-03-18T09:49:23;3.80;;;2.73;;
17259;SDS011;8746;49.230;9.220;2023-03-18T09:52:38;2.50;;;2.30;;
17259;SDS011;8746;49.230;9.220;2023-03-18T09:54:56;5.07;;;3.23;;
17259;SDS011;8746;49.230;9.220;2023-03-18T09:57:34;2.90;;;2.53;;
17259;SDS011;8746;49.230;9.220;2023-03-18T10:00:08;7.07;;;2.90;;
17259;SDS011;8746;49.230;9.220;2023-03-18T10:02:49;2.70;;;2.20;;
17259;SDS011;8746;49.230;9.220;2023-03-18T10:05:29;3.13;;;2.20;;
17259;SDS011;8746;49.230;9.220;2023-03-18T10:07:58;3.27;;;2.07;;
17259;SDS011;8746;49.230;9.220;2023-03-18T10:10:29;2.40;;;2.20;;
17259;SDS011;8746;49.230;9.220;2023-03-18T10:13:06;3.63;;;2.50;;
17259;SDS011;8746;49.230;9.220;2023-03-18T10:15:43;2.63;;;2.07;;
17259;SDS011;8746;49.230;9.220;2023-03-18T10:26:19;5.20;;;1.98;;
17259;SDS011;8746;49.230;9.220;2023-03-18T10:37:31;2.80;;;1.98;;
17259;SDS011;8746;49.230;9.220;2023-03-18T10:40:08;2.28;;;1.77;;
17259;SDS011;8746;49.230;9.220;2023-03-18T10:42:36;4.65;;;2.00;;
17259;SDS011;8746;49.230;9.220;2023-03-18T10:45:14;3.88;;;1.88;;
17259;SDS011;8746;49.230;9.220;2023-03-18T10:47:42;2.50;;;1.95;;
17259;SDS011;8746;49.230;9.220;2023-03-18T10:53:16;4.80;;;1.88;;
17259;SDS011;8746;49.230;9.220;2023-03-18T10:58:33;2.30;;;2.03;;
17259;SDS011;8746;49.230;9.220;2023-03-18T11:00:59;2.83;;;1.77;;
17259;SDS011;8746;49.230;9.220;2023-03-18T11:06:15;2.83;;;1.80;;
17259;SDS011;8746;49.230;9.220;2023-03-18T11:08:46;3.30;;;1.88;;
17259;SDS011;8746;49.230;9.220;2023-03-18T11:11:13;2.58;;;1.75;;
17259;SDS011;8746;49.230;9.220;2023-03-18T11:13:51;2.92;;;1.80;;
17259;SDS011;8746;49.230;9.220;2023-03-18T11:18:53;3.42;;;1.83;;
17259;SDS011;8746;49.230;9.220;2023-03-18T11:21:18;5.13;;;1.75;;
17259;SDS011;8746;49.230;9.220;2023-03-18T11:24:07;2.60;;;1.70;;
17259;SDS011;8746;49.230;9.220;2023-03-18T11:26:58;4.25;;;1.90;;
17259;SDS011;8746;49.230;9.220;2023-03-18T11:29:25;1.77;;;1.65;;
17259;SDS011;8746;49.230;9.220;2023-03-18T11:31:54;2.17;;;1.42;;
17259;SDS011;8746;49.230;9.220;2023-03-18T11:34:24;3.45;;;1.33;;
17259;SDS011;8746;49.230;9.220;2023-03-18T11:36:51;1.42;;;1.33;;
17259;SDS011;8746;49.230;9.220;2023-03-18T11:39:23;4.18;;;1.50;;
17259;SDS011;8746;49.230;9.220;2023-03-18T11:41:50;1.90;;;1.40;;
17259;SDS011;8746;49.230;9.220;2023-03-18T11:44:17;1.60;;;1.50;;
17259;SDS011;8746;49.230;9.220;2023-03-18T11:49:22;2.63;;;1.90;;
17259;SDS011;8746;49.230;9.220;2023-03-18T11:52:00;1.85;;;1.73;;
17259;SDS011;8746;49.230;9.220;2023-03-18T12:00:18;2.40;;;1.52;;
17259;SDS011;8746;49.230;9.220;2023-03-18T12:10:56;3.75;;;1.42;;
17259;SDS011;8746;49.230;9.220;2023-03-18T12:13:47;1.73;;;1.50;;
17259;SDS011;8746;49.230;9.220;2023-03-18T12:16:32;2.40;;;1.52;;
17259;SDS011;8746;49.230;9.220;2023-03-18T12:27:25;3.20;;;1.38;;
17259;SDS011;8746;49.230;9.220;2023-03-18T12:38:15;2.42;;;1.40;;
17259;SDS011;8746;49.230;9.220;2023-03-18T12:40:33;2.78;;;1.45;;
17259;SDS011;8746;49.230;9.220;2023-03-18T12:45:48;2.35;;;1.60;;
17259;SDS011;8746;49.230;9.220;2023-03-18T12:48:28;4.53;;;1.48;;
17259;SDS011;8746;49.230;9.220;2023-03-18T12:51:02;3.40;;;1.65;;
17259;SDS011;8746;49.230;9.220;2023-03-18T12:53:41;3.20;;;1.42;;
17259;SDS011;8746;49.230;9.220;2023-03-18T12:56:15;3.50;;;1.60;;
17259;SDS011;8746;49.230;9.220;2023-03-18T12:58:47;1.50;;;1.40;;
17259;SDS011;8746;49.230;9.220;2023-03-18T13:01:18;3.40;;;1.50;;
17259;SDS011;8746;49.230;9.220;2023-03-18T13:03:52;1.92;;;1.20;;
17259;SDS011;8746;49.230;9.220;2023-03-18T13:09:26;2.13;;;1.55;;
17259;SDS011;8746;49.230;9.220;2023-03-18T13:12:08;2.53;;;1.50;;
17259;SDS011;8746;49.230;9.220;2023-03-18T13:17:28;2.78;;;1.20;;
17259;SDS011;8746;49.230;9.220;2023-03-18T13:20:01;2.58;;;1.52;;
17259;SDS011;8746;49.230;9.220;2023-03-18T13:22:35;2.22;;;1.55;;
17259;SDS011;8746;49.230;9.220;2023-03-18T13:42:39;1.88;;;1.35;;
17259;SDS011;8746;49.230;9.220;2023-03-18T13:47:40;2.50;;;1.67;;
17259;SDS011;8746;49.230;9.220;2023-03-18T13:52:42;3.45;;;1.70;;
17259;SDS011;8746;49.230;9.220;2023-03-18T13:55:30;3.60;;;1.63;;
17259;SDS011;8746;49.230;9.220;2023-03-18T13:58:21;3.08;;;1.30;;
17259;SDS011;8746;49.230;9.220;2023-03-18T14:03:57;2.65;;;1.55;;
17259;SDS011;8746;49.230;9.220;2023-03-18T14:11:48;3.75;;;1.38;;
17259;SDS011;8746;49.230;9.220;2023-03-18T14:17:12;2.13;;;1.40;;
17259;SDS011;8746;49.230;9.220;2023-03-18T14:19:41;3.03;;;1.30;;
17259;SDS011;8746;49.230;9.220;2023-03-18T14:22:14;1.40;;;1.23;;
17259;SDS011;8746;49.230;9.220;2023-03-18T14:24:43;2.28;;;1.50;;
17259;SDS011;8746;49.230;9.220;2023-03-18T14:27:19;1.90;;;1.30;;
17259;SDS011;8746;49.230;9.220;2023-03-18T14:29:46;1.88;;;1.33;;
17259;SDS011;8746;49.230;9.220;2023-03-18T14:34:59;5.07;;;1.60;;
17259;SDS011;8746;49.230;9.220;2023-03-18T14:37:31;1.75;;;1.42;;
17259;SDS011;8746;49.230;9.220;2023-03-18T14:40:19;2.75;;;1.40;;
17259;SDS011;8746;49.230;9.220;2023-03-18T14:42:50;1.63;;;0.95;;
17259;SDS011;8746;49.230;9.220;2023-03-18T14:48:11;1.90;;;1.33;;
17259;SDS011;8746;49.230;9.220;2023-03-18T14:50:41;2.35;;;1.13;;
17259;SDS011;8746;49.230;9.220;2023-03-18T14:55:46;1.35;;;1.13;;
17259;SDS011;8746;49.230;9.220;2023-03-18T14:58:16;2.78;;;1.38;;
17259;SDS011;8746;49.230;9.220;2023-03-18T15:00:43;5.22;;;1.50;;
17259;SDS011;8746;49.230;9.220;2023-03-18T15:03:21;3.20;;;1.60;;
17259;SDS011;8746;49.230;9.220;2023-03-18T15:06:01;2.58;;;1.80;;
17259;SDS011;8746;49.230;9.220;2023-03-18T15:08:31;11.90;;;10.10;;
17259;SDS011;8746;49.230;9.220;2023-03-18T15:11:02;2.30;;;2.10;;
17259;SDS011;8746;49.230;9.220;2023-03-18T15:13:32;3.53;;;2.55;;
17259;SDS011;8746;49.230;9.220;2023-03-18T15:15:58;7.22;;;6.53;;
17259;SDS011;8746;49.230;9.220;2023-03-18T15:18:30;3.55;;;1.88;;
17259;SDS011;8746;49.230;9.220;2023-03-18T15:23:37;1.65;;;1.40;;
17259;SDS011;8746;49.230;9.220;2023-03-18T15:26:17;1.98;;;1.35;;
17259;SDS011;8746;49.230;9.220;2023-03-18T15:28:46;3.20;;;1.52;;
17259;SDS011;8746;49.230;9.220;2023-03-18T15:31:22;2.33;;;1.90;;
17259;SDS011;8746;49.230;9.220;2023-03-18T15:36:37;2.35;;;1.70;;
17259;SDS011;8746;49.230;9.220;2023-03-18T15:39:14;1.73;;;1.50;;
17259;SDS011;8746;49.230;9.220;2023-03-18T15:41:44;3.42;;;1.40;;
17259;SDS011;8746;49.230;9.220;2023-03-18T15:44:13;2.65;;;1.55;;
17259;SDS011;8746;49.230;9.220;2023-03-18T15:46:46;2.35;;;1.70;;
17259;SDS011;8746;49.230;9.220;2023-03-18T15:49:12;3.72;;;2.05;;
17259;SDS011;8746;49.230;9.220;2023-03-18T15:51:41;6.40;;;5.43;;
17259;SDS011;8746;49.230;9.220;2023-03-18T15:54:21;6.03;;;4.30;;
17259;SDS011;8746;49.230;9.220;2023-03-18T15:56:54;9.93;;;8.63;;
17259;SDS011;8746;49.230;9.220;2023-03-18T15:59:25;15.70;;;11.30;;
17259;SDS011;8746;49.230;9.220;2023-03-18T16:01:55;9.80;;;8.80;;
17259;SDS011;8746;49.230;9.220;2023-03-18T16:04:22;7.57;;;6.82;;
17259;SDS011;8746;49.230;9.220;2023-03-18T16:06:48;5.88;;;5.03;;
17259;SDS011;8746;49.230;9.220;2023-03-18T16:09:15;8.00;;;7.25;;
17259;SDS011;8746;49.230;9.220;2023-03-18T16:11:43;8.50;;;7.70;;
17259;SDS011;8746;49.230;9.220;2023-03-18T16:14:15;9.38;;;8.65;;
17259;SDS011;8746;49.230;9.220;2023-03-18T16:16:43;10.65;;;9.85;;
17259;SDS011;8746;49.230;9.220;2023-03-18T16:19:20;7.70;;;6.55;;
17259;SDS011;8746;49.230;9.220;2023-03-18T16:21:53;3.85;;;3.15;;
17259;SDS011;8746;49.230;9.220;2023-03-18T16:24:20;2.90;;;2.03;;
17259;SDS011;8746;49.230;9.220;2023-03-18T16:26:46;3.92;;;1.90;;
17259;SDS011;8746;49.230;9.220;2023-03-18T16:29:13;2.28;;;1.70;;
17259;SDS011;8746;49.230;9.220;2023-03-18T16:31:40;3.15;;;1.70;;
17259;SDS011;8746;49.230;9.220;2023-03-18T16:34:16;3.80;;;1.92;;
17259;SDS011;8746;49.230;9.220;2023-03-18T16:36:44;2.47;;;2.03;;
17259;SDS011;8746;49.230;9.220;2023-03-18T16:41:48;4.50;;;2.08;;
17259;SDS011;8746;49.230;9.220;2023-03-18T16:44:14;2.70;;;1.90;;
17259;SDS011;8746;49.230;9.220;2023-03-18T16:46:41;3.22;;;2.05;;
17259;SDS011;8746;49.230;9.220;2023-03-18T16:49:13;2.70;;;1.60;;
17259;SDS011;8746;49.230;9.220;2023-03-18T16:51:40;3.17;;;1.85;;
17259;SDS011;8746;49.230;9.220;2023-03-18T16:54:39;1.42;;;1.33;;
17259;SDS011;8746;49.230;9.220;2023-03-18T16:56:58;1.95;;;1.80;;
17259;SDS011;8746;49.230;9.220;2023-03-18T16:59:36;4.38;;;1.90;;
17259;SDS011;8746;49.230;9.220;2023-03-18T17:02:02;2.20;;;1.70;;
17259;SDS011;8746;49.230;9.220;2023-03-18T17:04:29;3.10;;;1.83;;
17259;SDS011;8746;49.230;9.220;2023-03-18T17:06:57;3.05;;;1.55;;
17259;SDS011;8746;49.230;9.220;2023-03-18T17:09:24;2.40;;;1.58;;
17259;SDS011;8746;49.230;9.220;2023-03-18T17:11:50;2.50;;;1.60;;